createdAt,value
2023-09-12T00:01:19.250Z,28.90
2023-09-12T00:03:45.587Z,28.90
2023-09-12T00:06:11.887Z,28.90
2023-09-12T00:08:38.062Z,28.90
2023-09-12T00:11:12.795Z,28.90
2023-09-12T00:13:40.395Z,28.90
2023-09-12T00:16:06.822Z,28.90
2023-09-12T00:18:35.091Z,28.90
2023-09-12T00:21:01.357Z,28.90
2023-09-12T00:23:28.033Z,28.90
2023-09-12T00:25:54.164Z,28.90
2023-09-12T00:28:21.143Z,28.90
2023-09-12T00:30:47.381Z,28.90
2023-09-12T00:33:13.589Z,28.90
2023-09-12T00:35:39.778Z,28.90
2023-09-12T00:38:07.173Z,28.90
2023-09-12T00:40:33.617Z,28.90
2023-09-12T00:43:00.000Z,28.90
2023-09-12T00:45:26.660Z,28.90
2023-09-12T00:47:53.841Z,28.90
2023-09-12T00:50:23.142Z,28.90
2023-09-12T00:52:49.732Z,28.90
2023-09-12T00:55:17.030Z,28.90
2023-09-12T00:57:43.720Z,28.90
2023-09-12T01:00:13.032Z,28.90
2023-09-12T01:02:41.720Z,28.90
2023-09-12T01:05:09.417Z,28.90
2023-09-12T01:07:37.114Z,28.90
2023-09-12T01:10:04.821Z,28.90
2023-09-12T01:12:31.082Z,28.90
2023-09-12T01:14:57.331Z,28.90
2023-09-12T01:17:24.615Z,28.90
2023-09-12T01:19:51.247Z,28.90
2023-09-12T01:22:35.393Z,28.90
2023-09-12T01:25:08.972Z,28.90
2023-09-12T01:27:36.124Z,28.90
2023-09-12T01:30:05.523Z,28.90
2023-09-12T01:32:33.522Z,28.90
2023-09-12T01:35:00.155Z,28.90
2023-09-12T01:37:26.836Z,28.90
2023-09-12T01:39:53.125Z,28.90
2023-09-12T01:42:22.144Z,28.90
2023-09-12T01:44:51.562Z,28.90
2023-09-12T01:47:20.614Z,28.90
2023-09-12T01:49:50.062Z,28.90
2023-09-12T01:52:16.912Z,28.90
2023-09-12T01:54:44.934Z,28.90
2023-09-12T01:57:11.435Z,28.90
2023-09-12T01:59:38.065Z,28.90
2023-09-12T02:02:04.428Z,28.90
2023-09-12T02:04:30.809Z,28.90
2023-09-12T02:06:58.676Z,28.80
2023-09-12T02:09:25.321Z,28.90
2023-09-12T02:11:51.988Z,28.90
2023-09-12T02:14:21.257Z,28.90
2023-09-12T02:16:47.553Z,28.90
2023-09-12T02:19:13.825Z,28.90
2023-09-12T02:21:40.330Z,28.90
2023-09-12T02:24:06.906Z,28.90
2023-09-12T02:26:36.488Z,28.90
2023-09-12T02:29:04.560Z,28.90
2023-09-12T02:31:30.736Z,28.90
2023-09-12T02:33:56.943Z,28.90
2023-09-12T02:36:23.206Z,28.90
2023-09-12T02:38:49.397Z,28.90
2023-09-12T02:41:15.520Z,28.90
2023-09-12T02:43:41.636Z,28.80
2023-09-12T02:46:07.856Z,28.90
2023-09-12T02:48:34.038Z,28.80
2023-09-12T02:51:00.244Z,28.80
2023-09-12T02:53:26.432Z,28.80
2023-09-12T02:55:54.667Z,28.80
2023-09-12T02:58:21.104Z,28.80
2023-09-12T03:00:50.608Z,28.80
2023-09-12T03:03:17.695Z,28.80
2023-09-12T03:05:43.938Z,28.80
2023-09-12T03:08:10.110Z,28.80
2023-09-12T03:10:36.242Z,28.80
2023-09-12T03:13:03.228Z,28.80
2023-09-12T03:15:29.600Z,28.80
2023-09-12T03:17:55.853Z,28.80
2023-09-12T03:20:22.015Z,28.70
2023-09-12T03:22:48.184Z,28.70
2023-09-12T03:25:14.512Z,28.70
2023-09-12T03:27:40.735Z,28.70
2023-09-12T03:30:07.568Z,28.80
2023-09-12T03:32:33.706Z,28.70
2023-09-12T03:34:59.930Z,28.70
2023-09-12T03:37:27.822Z,28.70
2023-09-12T03:39:54.018Z,28.70
2023-09-12T03:42:20.293Z,28.70
2023-09-12T03:44:46.479Z,28.70
2023-09-12T03:47:12.630Z,28.70
2023-09-12T03:49:38.830Z,28.70
2023-09-12T03:52:05.254Z,28.70
2023-09-12T03:54:32.083Z,28.70
2023-09-12T03:56:58.420Z,28.70
2023-09-12T03:59:24.566Z,28.70
2023-09-12T04:01:51.642Z,28.70
2023-09-12T04:04:17.967Z,28.70
2023-09-12T04:06:44.283Z,28.70
2023-09-12T04:09:10.444Z,28.70
2023-09-12T04:11:46.378Z,28.70
2023-09-12T04:14:14.932Z,28.70
2023-09-12T04:16:41.265Z,28.70
2023-09-12T04:19:07.967Z,28.60
2023-09-12T04:21:34.192Z,28.60
2023-09-12T04:24:00.447Z,28.60
2023-09-12T04:26:26.714Z,28.60
2023-09-12T04:28:52.847Z,28.60
2023-09-12T04:31:19.060Z,28.60
2023-09-12T04:33:45.258Z,28.60
2023-09-12T04:36:11.487Z,28.60
2023-09-12T04:38:37.920Z,28.60
2023-09-12T04:41:06.197Z,28.60
2023-09-12T04:43:32.775Z,28.60
2023-09-12T04:45:59.165Z,28.60
2023-09-12T04:48:25.465Z,28.60
2023-09-12T04:50:51.792Z,28.60
2023-09-12T04:53:17.943Z,28.60
2023-09-12T04:55:44.092Z,28.60
2023-09-12T04:58:10.553Z,28.60
2023-09-12T05:00:36.839Z,28.60
2023-09-12T05:03:04.415Z,28.60
2023-09-12T05:05:30.720Z,28.50
2023-09-12T05:07:56.908Z,28.40
2023-09-12T05:10:23.040Z,28.40
2023-09-12T05:12:49.261Z,28.40
2023-09-12T05:15:15.918Z,28.30
2023-09-12T05:17:42.196Z,28.30
2023-09-12T05:20:09.004Z,28.30
2023-09-12T05:22:35.179Z,28.20
2023-09-12T05:25:01.356Z,28.20
2023-09-12T05:27:27.514Z,28.20
2023-09-12T05:29:53.716Z,28.20
2023-09-12T05:32:20.414Z,28.10
2023-09-12T05:34:50.069Z,28.10
2023-09-12T05:37:16.600Z,28.10
2023-09-12T05:39:43.301Z,28.10
2023-09-12T05:42:09.568Z,28.10
2023-09-12T05:44:35.834Z,28.10
2023-09-12T05:47:02.065Z,28.00
2023-09-12T05:49:29.846Z,28.00
2023-09-12T05:51:57.103Z,28.00
2023-09-12T05:54:23.330Z,28.00
2023-09-12T05:56:49.706Z,28.00
2023-09-12T05:59:15.941Z,28.00
2023-09-12T06:01:42.158Z,28.00
2023-09-12T06:04:08.440Z,28.00
2023-09-12T06:06:34.725Z,28.00
2023-09-12T06:09:00.914Z,28.00
2023-09-12T06:11:27.298Z,28.00
2023-09-12T06:13:53.425Z,27.90
2023-09-12T06:16:19.658Z,27.90
2023-09-12T06:18:46.250Z,28.00
2023-09-12T06:21:12.715Z,27.90
2023-09-12T06:23:38.850Z,27.90
2023-09-12T06:26:05.009Z,27.90
2023-09-12T06:28:32.216Z,27.90
2023-09-12T06:30:59.123Z,27.90
2023-09-12T06:33:26.829Z,27.90
2023-09-12T06:35:53.621Z,27.90
2023-09-12T06:38:21.046Z,27.90
2023-09-12T06:40:47.787Z,27.90
2023-09-12T06:43:14.467Z,27.90
2023-09-12T06:45:44.127Z,27.90
2023-09-12T06:48:10.448Z,27.90
2023-09-12T06:50:38.500Z,27.90
2023-09-12T06:53:07.443Z,27.90
2023-09-12T06:55:33.723Z,27.90
2023-09-12T06:57:59.872Z,27.90
2023-09-12T07:00:27.246Z,27.90
2023-09-12T07:02:53.570Z,27.90
2023-09-12T07:05:19.814Z,27.90
2023-09-12T07:07:46.871Z,27.90
2023-09-12T07:10:23.486Z,27.90
2023-09-12T07:12:50.712Z,27.90
2023-09-12T07:15:16.946Z,27.90
2023-09-12T07:17:43.229Z,27.90
2023-09-12T07:20:11.980Z,27.90
2023-09-12T07:22:40.457Z,27.90
2023-09-12T07:25:07.702Z,27.90
2023-09-12T07:27:33.992Z,27.90
2023-09-12T07:30:00.194Z,27.90
2023-09-12T07:32:27.654Z,27.90
2023-09-12T07:34:53.791Z,27.90
2023-09-12T07:37:19.957Z,27.90
2023-09-12T07:39:46.161Z,27.90
2023-09-12T07:42:12.342Z,27.90
2023-09-12T07:44:38.513Z,27.90
2023-09-12T07:47:05.732Z,27.90
2023-09-12T07:49:32.038Z,27.90
2023-09-12T07:51:58.320Z,27.90
2023-09-12T07:54:24.543Z,27.90
2023-09-12T07:56:50.816Z,27.90
2023-09-12T07:59:17.191Z,27.90
2023-09-12T08:01:43.451Z,27.90
2023-09-12T08:04:09.780Z,27.90
2023-09-12T08:06:44.231Z,27.90
2023-09-12T08:09:18.106Z,27.90
2023-09-12T08:11:44.269Z,27.90
2023-09-12T08:14:10.400Z,27.90
2023-09-12T08:16:36.563Z,27.90
2023-09-12T08:19:02.960Z,27.90
2023-09-12T08:21:30.084Z,27.90
2023-09-12T08:23:56.235Z,27.90
2023-09-12T08:26:22.371Z,27.90
2023-09-12T08:28:48.505Z,27.90
2023-09-12T08:31:14.755Z,27.90
2023-09-12T08:33:41.064Z,27.90
2023-09-12T08:36:07.220Z,27.90
2023-09-12T08:38:33.349Z,28.00
2023-09-12T08:41:00.553Z,27.90
2023-09-12T08:43:26.781Z,27.90
2023-09-12T08:45:53.130Z,27.90
2023-09-12T08:48:24.687Z,27.90
2023-09-12T08:50:53.342Z,27.90
2023-09-12T08:53:22.952Z,27.90
2023-09-12T08:55:49.589Z,27.90
2023-09-12T08:58:15.854Z,28.00
2023-09-12T09:00:43.535Z,27.90
2023-09-12T09:03:10.776Z,27.90
2023-09-12T09:05:39.465Z,28.00
2023-09-12T09:08:07.939Z,27.90
2023-09-12T09:10:50.276Z,27.90
2023-09-12T09:13:18.387Z,27.90
2023-09-12T09:15:44.605Z,28.00
2023-09-12T09:18:12.674Z,28.00
2023-09-12T09:20:40.403Z,28.00
2023-09-12T09:23:11.120Z,27.90
2023-09-12T09:25:41.697Z,28.00
2023-09-12T09:28:18.632Z,28.00
2023-09-12T09:30:47.074Z,28.00
2023-09-12T09:33:13.857Z,28.00
2023-09-12T09:35:45.780Z,28.00
2023-09-12T09:38:17.125Z,27.90
2023-09-12T09:40:44.163Z,28.00
2023-09-12T09:43:10.340Z,27.90
2023-09-12T09:45:45.351Z,28.00
2023-09-12T09:48:22.667Z,28.00
2023-09-12T09:50:49.199Z,28.00
2023-09-12T09:53:15.529Z,28.00
2023-09-12T09:55:42.779Z,27.90
2023-09-12T09:58:09.613Z,28.00
2023-09-12T10:00:37.865Z,28.00
2023-09-12T10:03:08.651Z,28.00
2023-09-12T10:05:38.123Z,27.90
2023-09-12T10:08:09.228Z,28.00
2023-09-12T10:10:36.326Z,28.00
2023-09-12T10:13:05.046Z,28.00
2023-09-12T10:15:32.498Z,28.00
2023-09-12T10:18:01.074Z,28.00
2023-09-12T10:20:40.040Z,28.00
2023-09-12T10:23:16.434Z,28.00
2023-09-12T10:25:44.062Z,28.00
2023-09-12T10:28:11.313Z,28.00
2023-09-12T10:30:38.338Z,28.00
2023-09-12T10:33:06.096Z,28.00
2023-09-12T10:35:33.499Z,28.00
2023-09-12T10:38:04.404Z,28.00
2023-09-12T10:40:32.758Z,28.10
2023-09-12T10:43:00.938Z,28.10
2023-09-12T10:45:28.449Z,28.10
2023-09-12T10:47:54.774Z,28.10
2023-09-12T10:50:21.252Z,28.00
2023-09-12T10:52:48.654Z,28.10
2023-09-12T10:55:18.924Z,28.00
2023-09-12T10:58:14.590Z,28.00
2023-09-12T11:00:41.197Z,28.00
2023-09-12T11:03:27.804Z,28.00
2023-09-12T11:05:55.824Z,28.00
2023-09-12T11:08:22.474Z,28.00
2023-09-12T11:11:17.204Z,28.00
2023-09-12T11:13:44.286Z,28.00
2023-09-12T11:16:15.222Z,28.00
2023-09-12T11:19:19.951Z,28.00
2023-09-12T11:21:48.567Z,28.00
2023-09-12T11:24:15.909Z,28.00
2023-09-12T11:27:08.488Z,28.00
2023-09-12T11:29:39.414Z,28.00
2023-09-12T11:32:06.770Z,28.00
2023-09-12T11:34:42.144Z,28.00
2023-09-12T11:37:09.123Z,28.00
2023-09-12T11:39:40.049Z,28.00
2023-09-12T11:42:11.313Z,28.00
2023-09-12T11:44:38.623Z,28.00
2023-09-12T11:47:06.872Z,28.00
2023-09-12T11:49:40.985Z,28.00
2023-09-12T11:52:12.706Z,28.00
2023-09-12T11:54:41.572Z,28.00
2023-09-12T11:57:09.728Z,28.00
2023-09-12T11:59:40.460Z,28.00
2023-09-12T12:02:09.002Z,28.00
2023-09-12T12:04:35.956Z,28.00
2023-09-12T12:07:04.579Z,28.00
2023-09-12T12:09:31.733Z,28.00
2023-09-12T12:12:11.784Z,28.00
2023-09-12T12:14:40.205Z,28.00
2023-09-12T12:17:11.425Z,28.00
2023-09-12T12:19:39.018Z,28.00
2023-09-12T12:22:06.674Z,28.00
2023-09-12T12:24:40.585Z,28.00
2023-09-12T12:27:08.139Z,28.00
2023-09-12T12:29:35.786Z,28.00
2023-09-12T12:32:02.792Z,28.00
2023-09-12T12:35:15.860Z,28.00
2023-09-12T12:37:16.067Z,28.00
2023-09-12T12:39:45.147Z,28.00
2023-09-12T12:42:11.428Z,28.00
2023-09-12T12:44:41.276Z,28.00
2023-09-12T12:47:09.169Z,28.00
2023-09-12T12:49:39.884Z,28.00
2023-09-12T12:52:06.394Z,28.10
2023-09-12T12:54:33.972Z,28.10
2023-09-12T12:57:01.987Z,28.10
2023-09-12T12:59:30.189Z,28.00
2023-09-12T13:01:56.652Z,28.10
2023-09-12T13:04:24.901Z,28.10
2023-09-12T13:06:51.173Z,28.00
2023-09-12T13:09:17.394Z,28.10
2023-09-12T13:11:43.831Z,28.00
2023-09-12T13:14:11.509Z,28.10
2023-09-12T13:16:41.027Z,28.10
2023-09-12T13:19:07.269Z,28.10
2023-09-12T13:21:33.564Z,28.10
2023-09-12T13:24:02.045Z,28.10
2023-09-12T13:26:29.672Z,28.10
2023-09-12T13:28:55.815Z,28.10
2023-09-12T13:31:22.090Z,28.10
2023-09-12T13:33:48.271Z,28.10
2023-09-12T13:36:14.984Z,28.10
2023-09-12T13:38:41.261Z,28.10
2023-09-12T13:41:07.555Z,28.10
2023-09-12T13:43:33.690Z,28.10
2023-09-12T13:45:59.930Z,28.10
2023-09-12T13:48:27.120Z,28.10
2023-09-12T13:50:53.305Z,28.10
2023-09-12T13:53:19.488Z,28.10
2023-09-12T13:56:05.245Z,28.10
2023-09-12T13:58:42.747Z,28.10
2023-09-12T14:01:12.218Z,28.10
2023-09-12T14:03:39.992Z,28.10
2023-09-12T14:06:06.654Z,28.00
2023-09-12T14:08:33.338Z,28.10
2023-09-12T14:11:00.064Z,28.10
2023-09-12T14:13:26.383Z,28.10
2023-09-12T14:15:53.067Z,28.10
2023-09-12T14:18:21.812Z,28.10
2023-09-12T14:20:48.880Z,28.10
2023-09-12T14:23:16.897Z,28.10
2023-09-12T14:25:43.635Z,28.10
2023-09-12T14:28:11.766Z,28.20
2023-09-12T14:30:38.670Z,28.20
2023-09-12T14:33:05.034Z,28.10
2023-09-12T14:35:31.208Z,28.10
2023-09-12T14:37:58.935Z,28.10
2023-09-12T14:40:25.285Z,28.10
2023-09-12T14:42:51.617Z,28.10
2023-09-12T14:45:17.996Z,28.10
2023-09-12T14:47:44.245Z,28.10
2023-09-12T14:50:10.460Z,28.10
2023-09-12T14:52:38.562Z,28.20
2023-09-12T14:55:08.115Z,28.20
2023-09-12T14:57:34.505Z,28.20
2023-09-12T15:00:01.576Z,28.20
2023-09-12T15:02:33.764Z,28.20
2023-09-12T15:05:04.137Z,28.20
2023-09-12T15:07:31.114Z,28.20
2023-09-12T15:09:57.921Z,28.20
2023-09-12T15:12:24.252Z,28.10
2023-09-12T15:14:51.555Z,28.20
2023-09-12T15:17:18.651Z,28.20
2023-09-12T15:19:44.802Z,28.20
2023-09-12T15:22:10.935Z,28.10
2023-09-12T15:24:37.070Z,28.20
2023-09-12T15:27:03.582Z,28.20
2023-09-12T15:29:29.796Z,28.10
2023-09-12T15:31:56.175Z,28.20
2023-09-12T15:34:22.428Z,28.20
2023-09-12T15:36:49.016Z,28.20
2023-09-12T15:39:15.911Z,28.20
2023-09-12T15:41:42.062Z,28.20
2023-09-12T15:44:15.563Z,28.10
2023-09-12T15:46:42.865Z,28.20
2023-09-12T15:49:09.351Z,28.20
2023-09-12T15:51:35.614Z,28.20
2023-09-12T15:54:01.885Z,28.20
2023-09-12T15:56:28.117Z,28.20
2023-09-12T15:58:55.978Z,28.20
2023-09-12T16:01:22.772Z,28.20
2023-09-12T16:03:49.226Z,28.20
2023-09-12T16:06:16.273Z,28.20
2023-09-12T16:08:42.406Z,28.20
2023-09-12T16:11:08.556Z,28.20
2023-09-12T16:13:34.693Z,28.20
2023-09-12T16:16:00.945Z,28.20
2023-09-12T16:18:27.210Z,28.30
2023-09-12T16:20:53.583Z,28.30
2023-09-12T16:23:20.576Z,28.20
2023-09-12T16:25:51.396Z,28.20
2023-09-12T16:28:17.932Z,28.20
2023-09-12T16:30:44.765Z,28.20
2023-09-12T16:33:11.242Z,28.30
2023-09-12T16:35:37.587Z,28.20
2023-09-12T16:38:03.958Z,28.30
2023-09-12T16:40:31.993Z,28.30
2023-09-12T16:42:58.406Z,28.30
2023-09-12T16:45:24.733Z,28.20
2023-09-12T16:47:51.054Z,28.20
2023-09-12T16:50:19.230Z,28.20
2023-09-12T16:52:45.341Z,28.20
2023-09-12T16:55:13.495Z,28.20
2023-09-12T16:57:40.807Z,28.20
2023-09-12T17:00:08.905Z,28.20
2023-09-12T17:02:35.786Z,28.20
2023-09-12T17:05:04.419Z,28.20
2023-09-12T17:07:33.464Z,28.30
2023-09-12T17:09:59.780Z,28.40
2023-09-12T17:12:26.335Z,28.40
2023-09-12T17:14:52.509Z,28.50
2023-09-12T17:17:18.715Z,28.50
2023-09-12T17:19:44.905Z,28.50
2023-09-12T17:22:11.676Z,28.50
2023-09-12T17:24:38.562Z,28.50
2023-09-12T17:27:05.023Z,28.50
2023-09-12T17:29:31.583Z,28.60
2023-09-12T17:31:57.959Z,28.60
2023-09-12T17:34:43.940Z,28.60
2023-09-12T17:37:10.674Z,28.60
2023-09-12T17:39:37.414Z,28.60
2023-09-12T17:42:06.974Z,28.60
2023-09-12T17:44:33.115Z,28.60
2023-09-12T17:46:59.372Z,28.60
2023-09-12T17:49:26.049Z,28.60
2023-09-12T17:51:52.330Z,28.60
2023-09-12T17:54:18.528Z,28.60
2023-09-12T17:56:44.690Z,28.60
2023-09-12T17:59:10.836Z,28.70
2023-09-12T18:01:37.086Z,28.70
2023-09-12T18:04:04.108Z,28.70
2023-09-12T18:06:32.187Z,28.70
2023-09-12T18:09:00.710Z,28.70
2023-09-12T18:11:26.950Z,28.70
2023-09-12T18:13:53.620Z,28.70
2023-09-12T18:16:19.869Z,28.70
2023-09-12T18:18:46.129Z,28.70
2023-09-12T18:21:13.496Z,28.80
2023-09-12T18:23:43.651Z,28.70
2023-09-12T18:26:13.346Z,28.70
2023-09-12T18:28:44.612Z,28.80
2023-09-12T18:31:12.504Z,28.80
2023-09-12T18:33:39.027Z,28.80
2023-09-12T18:36:06.081Z,28.80
2023-09-12T18:38:32.416Z,28.80
2023-09-12T18:40:58.613Z,28.80
2023-09-12T18:43:24.841Z,28.80
2023-09-12T18:45:51.124Z,28.80
2023-09-12T18:48:17.777Z,28.80
2023-09-12T18:50:46.860Z,28.80
2023-09-12T18:53:16.269Z,28.80
2023-09-12T18:55:43.018Z,28.80
2023-09-12T18:58:11.290Z,28.80
2023-09-12T19:00:46.824Z,28.80
2023-09-12T19:03:17.909Z,28.80
2023-09-12T19:05:45.043Z,28.80
2023-09-12T19:08:11.566Z,28.80
2023-09-12T19:10:38.360Z,28.80
2023-09-12T19:13:09.380Z,28.80
2023-09-12T19:15:38.920Z,28.80
2023-09-12T19:18:07.325Z,28.80
2023-09-12T19:20:34.752Z,28.80
2023-09-12T19:23:01.777Z,28.80
2023-09-12T19:25:28.366Z,28.80
2023-09-12T19:27:54.597Z,28.80
2023-09-12T19:30:21.025Z,28.80
2023-09-12T19:32:47.605Z,28.80
2023-09-12T19:35:14.078Z,28.80
2023-09-12T19:37:44.509Z,28.80
2023-09-12T19:40:15.021Z,28.80
2023-09-12T19:42:41.328Z,28.80
2023-09-12T19:45:08.017Z,28.80
2023-09-12T19:47:46.323Z,28.80
2023-09-12T19:50:20.790Z,28.80
2023-09-12T19:52:46.944Z,28.80
2023-09-12T19:55:13.218Z,28.80
2023-09-12T19:57:45.609Z,28.80
2023-09-12T20:00:12.910Z,28.90
2023-09-12T20:02:39.085Z,28.90
2023-09-12T20:05:05.579Z,28.90
2023-09-12T20:07:32.043Z,28.90
2023-09-12T20:09:58.266Z,28.90
2023-09-12T20:12:25.096Z,28.80
2023-09-12T20:14:51.831Z,28.90
2023-09-12T20:17:18.116Z,28.90
2023-09-12T20:19:44.346Z,28.90
2023-09-12T20:22:11.330Z,28.90
2023-09-12T20:24:37.570Z,28.90
2023-09-12T20:27:04.932Z,28.90
2023-09-12T20:29:31.059Z,28.90
2023-09-12T20:31:57.387Z,28.90
2023-09-12T20:34:23.566Z,28.90
2023-09-12T20:36:51.235Z,28.90
2023-09-12T20:39:26.042Z,28.90
2023-09-12T20:41:53.664Z,28.90
2023-09-12T20:44:20.083Z,28.90
2023-09-12T20:46:46.387Z,28.90
2023-09-12T20:49:12.650Z,28.90
2023-09-12T20:51:40.869Z,28.90
2023-09-12T20:54:09.007Z,28.90
2023-09-12T20:56:41.783Z,28.90
2023-09-12T20:59:07.935Z,28.90
2023-09-12T21:01:35.181Z,28.90
2023-09-12T21:04:02.177Z,28.90
2023-09-12T21:06:28.704Z,28.90
2023-09-12T21:08:55.019Z,28.90
2023-09-12T21:11:21.714Z,28.90
2023-09-12T21:13:48.409Z,28.90
2023-09-12T21:16:14.818Z,28.90
2023-09-12T21:18:41.912Z,28.90
2023-09-12T21:21:08.058Z,28.90
2023-09-12T21:23:34.180Z,28.90
2023-09-12T21:26:00.362Z,28.90
2023-09-12T21:28:26.656Z,28.90
2023-09-12T21:30:53.133Z,28.90
2023-09-12T21:33:19.770Z,28.90
2023-09-12T21:35:46.038Z,28.90
2023-09-12T21:38:12.174Z,28.90
2023-09-12T21:40:38.347Z,28.90
2023-09-12T21:43:05.308Z,28.90
2023-09-12T21:45:32.106Z,28.90
2023-09-12T21:47:58.314Z,28.90
2023-09-12T21:50:24.533Z,28.90
2023-09-12T21:52:50.669Z,28.90
2023-09-12T21:55:16.879Z,28.90
2023-09-12T21:57:43.359Z,28.90
2023-09-12T22:00:30.240Z,28.90
2023-09-12T22:02:56.674Z,28.90
2023-09-12T22:05:24.604Z,28.90
2023-09-12T22:07:51.541Z,28.90
2023-09-12T22:10:18.260Z,28.90
2023-09-12T22:12:45.125Z,28.90
2023-09-12T22:15:11.314Z,28.90
2023-09-12T22:17:37.909Z,28.90
2023-09-12T22:20:06.734Z,28.90
2023-09-12T22:22:33.446Z,28.90
2023-09-12T22:24:59.783Z,28.90
2023-09-12T22:27:25.919Z,28.90
2023-09-12T22:29:54.960Z,28.90
2023-09-12T22:32:21.100Z,28.90
2023-09-12T22:34:47.260Z,28.90
2023-09-12T22:37:13.456Z,28.90
2023-09-12T22:39:39.668Z,28.90
2023-09-12T22:42:05.999Z,28.90
2023-09-12T22:44:32.227Z,29.00
2023-09-12T22:46:58.452Z,28.90
2023-09-12T22:49:24.585Z,29.00
2023-09-12T22:51:50.757Z,28.90
2023-09-12T22:54:16.896Z,28.90
2023-09-12T22:56:43.026Z,29.00
2023-09-12T22:59:09.155Z,28.90
2023-09-12T23:01:35.413Z,28.90
2023-09-12T23:04:01.728Z,29.00
2023-09-12T23:06:27.980Z,29.00
2023-09-12T23:08:54.114Z,29.00
2023-09-12T23:11:20.621Z,29.00
2023-09-12T23:13:46.940Z,29.00
2023-09-12T23:16:13.317Z,29.00
2023-09-12T23:18:39.565Z,28.90
2023-09-12T23:21:05.809Z,29.00
2023-09-12T23:23:32.046Z,29.00
2023-09-12T23:25:58.246Z,29.00
2023-09-12T23:28:25.465Z,28.90
2023-09-12T23:30:51.714Z,29.00
2023-09-12T23:33:17.968Z,29.00
2023-09-12T23:35:44.711Z,28.90
2023-09-12T23:38:10.992Z,29.00
2023-09-12T23:40:37.170Z,29.00
2023-09-12T23:43:03.489Z,29.00
2023-09-12T23:45:29.687Z,29.00
2023-09-12T23:47:55.898Z,29.00
2023-09-12T23:50:22.141Z,29.00
2023-09-12T23:52:48.284Z,29.00
2023-09-12T23:55:14.559Z,29.00
2023-09-12T23:57:40.782Z,29.00
